createdAt,value
2023-03-21T00:02:22.813Z,13.30
2023-03-21T00:05:13.353Z,13.30
2023-03-21T00:07:47.319Z,13.30
2023-03-21T00:10:39.865Z,13.10
2023-03-21T00:13:36.999Z,13.30
2023-03-21T00:16:28.999Z,13.30
2023-03-21T00:22:29.712Z,13.10
2023-03-21T00:25:14.250Z,13.30
2023-03-21T00:30:57.672Z,13.20
2023-03-21T00:33:37.123Z,13.10
2023-03-21T00:39:24.434Z,12.80
2023-03-21T00:42:06.879Z,13.00
2023-03-21T00:44:54.872Z,13.00
2023-03-21T00:47:41.311Z,13.00
2023-03-21T00:50:24.209Z,12.90
2023-03-21T00:53:29.821Z,13.00
2023-03-21T00:56:04.698Z,12.60
2023-03-21T00:58:36.616Z,12.80
2023-03-21T01:01:27.683Z,12.70
2023-03-21T01:04:04.788Z,12.60
2023-03-21T01:06:34.006Z,12.60
2023-03-21T01:09:24.794Z,12.50
2023-03-21T01:12:09.600Z,12.50
2023-03-21T01:14:52.870Z,12.40
2023-03-21T01:17:23.645Z,12.40
2023-03-21T01:20:08.345Z,12.20
2023-03-21T01:25:57.660Z,12.50
2023-03-21T01:28:47.891Z,12.50
2023-03-21T01:31:39.700Z,12.70
2023-03-21T01:34:18.891Z,12.50
2023-03-21T01:43:32.913Z,12.70
2023-03-21T01:47:03.664Z,12.50
2023-03-21T01:50:11.515Z,12.30
2023-03-21T01:53:09.460Z,12.30
2023-03-21T01:55:52.198Z,12.30
2023-03-21T01:58:51.554Z,12.30
2023-03-21T02:01:44.928Z,12.40
2023-03-21T02:04:28.253Z,12.40
2023-03-21T02:07:19.482Z,12.30
2023-03-21T02:10:03.559Z,12.30
2023-03-21T02:13:00.670Z,12.40
2023-03-21T02:15:49.108Z,12.30
2023-03-21T02:18:53.599Z,12.40
2023-03-21T02:21:59.277Z,12.40
2023-03-21T02:25:10.764Z,12.40
2023-03-21T02:27:58.234Z,12.20
2023-03-21T02:31:08.044Z,12.30
2023-03-21T02:34:22.385Z,12.40
2023-03-21T02:37:04.929Z,12.30
2023-03-21T02:39:56.982Z,12.20
2023-03-21T02:42:54.806Z,12.20
2023-03-21T02:45:55.839Z,12.10
2023-03-21T02:48:50.324Z,12.00
2023-03-21T02:51:34.980Z,11.90
2023-03-21T02:54:41.885Z,11.90
2023-03-21T03:00:32.674Z,11.80
2023-03-21T03:03:17.957Z,11.80
2023-03-21T03:05:59.064Z,11.70
2023-03-21T03:11:42.945Z,11.50
2023-03-21T03:14:53.025Z,11.40
2023-03-21T03:17:47.601Z,11.40
2023-03-21T03:20:51.947Z,11.40
2023-03-21T03:23:39.057Z,11.40
2023-03-21T03:27:01.975Z,11.20
2023-03-21T03:29:55.125Z,11.30
2023-03-21T03:32:55.625Z,11.30
2023-03-21T03:36:06.499Z,11.10
2023-03-21T03:38:55.641Z,11.30
2023-03-21T03:41:56.218Z,11.30
2023-03-21T03:44:40.802Z,11.40
2023-03-21T03:47:36.214Z,11.40
2023-03-21T03:50:24.410Z,11.70
2023-03-21T03:53:16.228Z,11.40
2023-03-21T03:56:12.986Z,11.40
2023-03-21T03:58:54.931Z,11.50
2023-03-21T04:01:41.706Z,11.40
2023-03-21T04:04:13.477Z,11.40
2023-03-21T04:06:54.648Z,11.40
2023-03-21T04:09:45.607Z,11.50
2023-03-21T04:12:39.953Z,11.40
2023-03-21T04:15:36.470Z,11.50
2023-03-21T04:18:50.993Z,11.40
2023-03-21T04:21:30.268Z,11.50
2023-03-21T04:24:06.108Z,11.60
2023-03-21T04:26:39.968Z,11.70
2023-03-21T04:29:51.497Z,11.70
2023-03-21T04:32:59.746Z,11.70
2023-03-21T04:38:27.445Z,11.70
2023-03-21T04:41:10.662Z,11.70
2023-03-21T04:43:49.913Z,11.70
2023-03-21T04:46:28.852Z,11.50
2023-03-21T04:49:24.821Z,11.70
2023-03-21T04:55:23.088Z,11.60
2023-03-21T04:58:06.666Z,11.60
2023-03-21T05:01:10.909Z,11.70
2023-03-21T05:03:57.348Z,11.60
2023-03-21T05:06:36.719Z,11.70
2023-03-21T05:09:52.673Z,11.90
2023-03-21T05:12:39.733Z,11.70
2023-03-21T05:15:29.607Z,11.70
2023-03-21T05:18:22.794Z,11.70
2023-03-21T05:21:29.961Z,11.70
2023-03-21T05:24:18.152Z,11.70
2023-03-21T05:27:09.096Z,11.70
2023-03-21T05:29:57.030Z,11.70
2023-03-21T05:32:38.258Z,11.70
2023-03-21T05:35:16.935Z,11.70
2023-03-21T05:38:07.330Z,11.60
2023-03-21T05:41:07.132Z,11.60
2023-03-21T05:43:39.106Z,11.60
2023-03-21T05:46:23.044Z,11.60
2023-03-21T05:52:40.200Z,11.70
2023-03-21T05:58:51.282Z,11.70
2023-03-21T06:01:42.702Z,12.10
2023-03-21T06:04:24.420Z,11.80
2023-03-21T06:07:36.969Z,11.80
2023-03-21T06:10:36.168Z,11.70
2023-03-21T06:13:45.248Z,11.50
2023-03-21T06:16:58.996Z,11.80
2023-03-21T06:19:58.396Z,11.90
2023-03-21T06:22:53.202Z,11.70
2023-03-21T06:25:54.765Z,12.00
2023-03-21T06:29:03.694Z,12.10
2023-03-21T06:35:51.953Z,12.30
2023-03-21T06:45:08.974Z,12.30
2023-03-21T06:48:04.327Z,12.50
2023-03-21T06:50:43.745Z,12.40
2023-03-21T06:53:30.218Z,12.20
2023-03-21T06:57:31.256Z,12.40
2023-03-21T07:04:43.186Z,12.20
2023-03-21T07:14:04.308Z,12.40
2023-03-21T07:31:06.184Z,13.00
2023-03-21T07:33:49.353Z,13.10
2023-03-21T07:40:59.401Z,13.10
2023-03-21T07:43:49.253Z,13.00
2023-03-21T07:46:18.707Z,13.00
2023-03-21T07:48:59.374Z,13.00
2023-03-21T07:51:55.558Z,13.10
2023-03-21T07:54:32.038Z,13.30
2023-03-21T08:43:26.813Z,15.00
2023-03-21T08:45:55.528Z,14.90
2023-03-21T08:48:27.132Z,14.90
2023-03-21T08:51:00.359Z,14.90
2023-03-21T08:53:37.123Z,15.10
2023-03-21T08:56:21.638Z,15.10
2023-03-21T08:59:06.688Z,15.10
2023-03-21T09:01:40.851Z,15.20
2023-03-21T09:04:14.156Z,15.10
2023-03-21T09:06:45.905Z,15.00
2023-03-21T09:09:24.137Z,15.10
2023-03-21T09:11:59.776Z,15.20
2023-03-21T09:14:33.180Z,15.20
2023-03-21T09:17:03.470Z,15.30
2023-03-21T09:19:37.895Z,15.30
2023-03-21T09:22:06.428Z,15.30
2023-03-21T09:24:35.440Z,15.20
2023-03-21T09:27:03.887Z,15.20
2023-03-21T09:29:34.149Z,15.20
2023-03-21T09:32:05.886Z,15.20
2023-03-21T09:34:37.246Z,15.30
2023-03-21T09:37:15.768Z,15.40
2023-03-21T09:39:49.511Z,15.60
2023-03-21T09:42:36.583Z,15.90
2023-03-21T09:45:13.998Z,15.70
2023-03-21T09:47:54.107Z,15.80
2023-03-21T09:50:34.687Z,15.80
2023-03-21T09:53:10.459Z,15.70
2023-03-21T09:55:48.813Z,15.80
2023-03-21T09:58:30.489Z,15.80
2023-03-21T10:01:13.708Z,16.00
2023-03-21T10:03:44.990Z,16.10
2023-03-21T10:06:29.092Z,16.10
2023-03-21T10:09:07.655Z,16.10
2023-03-21T10:11:46.304Z,16.30
2023-03-21T10:14:22.754Z,16.50
2023-03-21T10:17:13.846Z,16.50
2023-03-21T10:19:46.779Z,16.60
2023-03-21T10:22:18.769Z,16.80
2023-03-21T10:24:51.862Z,16.90
2023-03-21T10:27:29.783Z,17.00
2023-03-21T10:30:12.583Z,17.20
2023-03-21T10:32:52.388Z,17.30
2023-03-21T10:35:23.541Z,17.50
2023-03-21T10:37:57.367Z,17.60
2023-03-21T10:40:42.291Z,17.80
2023-03-21T10:43:34.684Z,17.80
2023-03-21T10:46:21.299Z,18.10
2023-03-21T10:48:58.678Z,18.10
2023-03-21T10:51:30.133Z,18.10
2023-03-21T10:54:02.685Z,18.20
2023-03-21T10:56:37.580Z,18.20
2023-03-21T10:59:19.458Z,18.40
2023-03-21T11:02:00.062Z,18.50
2023-03-21T11:04:48.492Z,18.70
2023-03-21T11:07:19.277Z,19.00
2023-03-21T11:09:52.517Z,19.00
2023-03-21T11:12:34.159Z,19.10
2023-03-21T11:15:32.610Z,19.10
2023-03-21T11:19:25.546Z,19.20
2023-03-21T11:21:38.173Z,19.30
2023-03-21T11:24:10.034Z,19.20
2023-03-21T11:26:59.943Z,19.20
2023-03-21T11:29:37.971Z,19.10
2023-03-21T11:32:29.043Z,19.20
2023-03-21T11:35:20.490Z,19.20
2023-03-21T11:38:01.285Z,19.30
2023-03-21T11:40:39.813Z,19.40
2023-03-21T11:43:36.889Z,19.40
2023-03-21T11:46:20.571Z,19.30
2023-03-21T11:49:07.182Z,19.40
2023-03-21T11:51:52.237Z,19.50
2023-03-21T11:54:41.254Z,19.60
2023-03-21T11:57:39.886Z,19.90
2023-03-21T12:00:24.063Z,20.20
2023-03-21T12:03:32.783Z,20.30
2023-03-21T12:06:21.851Z,20.60
2023-03-21T12:09:24.345Z,20.50
2023-03-21T12:12:12.661Z,20.50
2023-03-21T12:15:04.366Z,20.50
2023-03-21T12:17:52.946Z,20.50
2023-03-21T12:20:56.361Z,20.60
2023-03-21T12:23:50.027Z,20.40
2023-03-21T12:26:27.798Z,20.20
2023-03-21T12:29:30.285Z,20.40
2023-03-21T12:32:12.533Z,20.40
2023-03-21T12:35:23.140Z,20.20
2023-03-21T12:38:03.373Z,20.40
2023-03-21T12:41:08.446Z,20.30
2023-03-21T12:43:55.149Z,20.20
2023-03-21T12:46:40.479Z,20.10
2023-03-21T12:49:19.044Z,20.10
2023-03-21T12:52:03.539Z,20.10
2023-03-21T12:54:42.999Z,20.10
2023-03-21T12:57:38.240Z,20.10
2023-03-21T13:00:52.262Z,20.40
2023-03-21T13:03:44.653Z,20.50
2023-03-21T13:06:39.786Z,20.60
2023-03-21T13:09:36.706Z,20.50
2023-03-21T13:12:33.824Z,20.50
2023-03-21T13:15:31.164Z,20.40
2023-03-21T13:18:08.175Z,20.50
2023-03-21T13:24:35.076Z,20.20
2023-03-21T13:27:31.123Z,20.50
2023-03-21T13:30:19.089Z,20.60
2023-03-21T13:32:55.483Z,21.00
2023-03-21T13:35:27.878Z,21.40
2023-03-21T13:38:13.077Z,21.80
2023-03-21T13:41:00.607Z,22.20
2023-03-21T13:43:49.248Z,22.40
2023-03-21T13:46:52.886Z,22.30
2023-03-21T13:50:00.669Z,22.20
2023-03-21T13:57:46.765Z,22.10
2023-03-21T14:03:18.845Z,21.60
2023-03-21T14:05:54.191Z,21.60
2023-03-21T14:08:36.790Z,21.80
2023-03-21T14:11:20.145Z,21.70
2023-03-21T14:13:51.655Z,21.60
2023-03-21T14:16:28.528Z,21.60
2023-03-21T14:19:00.677Z,21.60
2023-03-21T14:21:35.453Z,21.40
2023-03-21T14:25:17.514Z,21.40
2023-03-21T14:28:09.136Z,21.40
2023-03-21T14:30:49.181Z,21.40
2023-03-21T14:33:48.210Z,21.50
2023-03-21T14:57:39.520Z,20.80
2023-03-21T15:00:52.021Z,20.70
2023-03-21T15:03:38.764Z,20.60
2023-03-21T15:06:26.881Z,20.40
2023-03-21T15:09:55.092Z,20.30
2023-03-21T15:17:25.745Z,19.80
2023-03-21T15:31:31.494Z,19.20
2023-03-21T15:34:43.035Z,19.10
2023-03-21T15:37:40.557Z,18.90
2023-03-21T15:40:44.745Z,18.90
2023-03-21T15:43:26.146Z,18.90
2023-03-21T15:46:05.060Z,18.70
2023-03-21T15:48:52.649Z,18.70
2023-03-21T15:51:37.280Z,18.60
2023-03-21T15:54:13.363Z,18.60
2023-03-21T15:57:21.651Z,18.50
2023-03-21T16:00:10.594Z,18.40
2023-03-21T16:03:03.733Z,18.40
2023-03-21T16:05:49.356Z,18.40
2023-03-21T16:08:24.439Z,18.60
2023-03-21T16:10:54.699Z,18.80
2023-03-21T16:13:24.275Z,18.90
2023-03-21T16:15:57.352Z,18.90
2023-03-21T16:18:28.905Z,19.00
2023-03-21T16:20:59.295Z,18.90
2023-03-21T16:23:31.745Z,18.80
2023-03-21T17:01:02.573Z,17.50
2023-03-21T17:03:35.258Z,17.30
2023-03-21T17:06:21.382Z,17.40
2023-03-21T17:09:10.412Z,17.40
2023-03-21T17:11:49.704Z,17.30
2023-03-21T17:28:03.904Z,17.00
2023-03-21T17:30:36.733Z,17.00
2023-03-21T17:33:09.126Z,16.90
2023-03-21T17:35:39.236Z,16.90
2023-03-21T17:38:22.314Z,16.80
2023-03-21T17:40:55.920Z,16.80
2023-03-21T17:43:29.306Z,16.80
2023-03-21T17:45:57.749Z,16.80
2023-03-21T17:48:31.442Z,16.80
2023-03-21T17:51:16.147Z,16.80
2023-03-21T17:53:49.775Z,16.60
2023-03-21T17:56:26.026Z,16.70
2023-03-21T17:59:02.757Z,16.70
2023-03-21T18:01:32.393Z,16.70
2023-03-21T18:04:05.462Z,16.80
2023-03-21T19:55:26.485Z,15.40
2023-03-21T19:58:30.779Z,15.40
2023-03-21T20:01:11.194Z,15.40
2023-03-21T20:03:53.929Z,15.30
2023-03-21T20:06:28.273Z,15.40
2023-03-21T20:09:50.727Z,15.20
2023-03-21T20:12:37.439Z,15.40
2023-03-21T20:15:47.781Z,15.40
2023-03-21T20:18:41.201Z,15.40
2023-03-21T20:24:55.676Z,15.30
2023-03-21T20:27:41.561Z,15.20
2023-03-21T20:33:43.235Z,15.00
2023-03-21T20:37:17.622Z,15.20
2023-03-21T20:40:27.417Z,15.20
2023-03-21T20:44:04.839Z,15.20
2023-03-21T20:46:26.611Z,15.20
2023-03-21T20:49:11.898Z,15.20
2023-03-21T20:55:36.414Z,15.20
2023-03-21T20:58:53.644Z,15.20
2023-03-21T21:01:26.367Z,15.30
2023-03-21T21:04:55.830Z,15.20
2023-03-21T21:15:06.627Z,15.30
2023-03-21T21:18:56.721Z,15.30
2023-03-21T21:28:34.487Z,15.30
2023-03-21T21:31:20.527Z,15.30
2023-03-21T21:34:26.316Z,15.30
2023-03-21T21:38:06.510Z,15.20
2023-03-21T21:41:27.365Z,15.40
2023-03-21T21:44:40.579Z,15.30
2023-03-21T21:51:41.913Z,15.20
2023-03-21T21:54:13.580Z,15.20
2023-03-21T21:57:03.629Z,15.20
2023-03-21T21:59:57.360Z,15.20
2023-03-21T22:03:20.657Z,15.20
2023-03-21T22:06:51.065Z,15.10
2023-03-21T22:09:26.804Z,15.20
2023-03-21T22:12:41.816Z,15.20
2023-03-21T22:15:41.823Z,15.20
2023-03-21T22:18:15.727Z,15.00
2023-03-21T22:21:16.901Z,15.20
2023-03-21T22:24:03.390Z,15.10
2023-03-21T22:30:19.885Z,15.10
2023-03-21T22:33:23.046Z,15.10
2023-03-21T22:36:08.087Z,15.00
2023-03-21T22:39:41.801Z,14.80
2023-03-21T22:42:34.015Z,15.20
2023-03-21T22:45:44.576Z,15.00
2023-03-21T22:48:18.382Z,15.10
2023-03-21T22:51:03.121Z,15.00
2023-03-21T22:56:33.801Z,15.00
2023-03-21T22:59:07.408Z,14.90
2023-03-21T23:01:45.161Z,14.90
2023-03-21T23:04:15.716Z,14.80
2023-03-21T23:06:48.550Z,14.70
2023-03-21T23:09:27.123Z,14.80
2023-03-21T23:12:04.156Z,14.80
2023-03-21T23:14:32.562Z,14.80
2023-03-21T23:17:07.286Z,14.70
2023-03-21T23:19:45.524Z,14.70
2023-03-21T23:22:36.331Z,14.80
2023-03-21T23:25:21.185Z,14.70
2023-03-21T23:27:49.929Z,14.40
2023-03-21T23:30:26.622Z,14.50
2023-03-21T23:33:11.554Z,14.40
2023-03-21T23:35:56.364Z,14.50
2023-03-21T23:41:35.689Z,14.40
2023-03-21T23:44:13.222Z,14.40
2023-03-21T23:46:44.382Z,14.40
2023-03-21T23:49:26.389Z,14.40
2023-03-21T23:52:06.850Z,14.40
2023-03-21T23:54:46.706Z,14.20
